Mc Farland, Kansas
Current Conditions -  °F | °C
As of 2:52 PM on Saturday 25 Oct 2014 (Local Time) from KMHK Reporting Station
Clear Clear  
Wind Chill: 83°   Ceiling: Unl
Heat Index: 85°   Visibility: 10mi
Dew Point: 65°   Wind: 7mph
Humidity: 54%   Direction: 60°ENE
Pressure: 30"   Gusts: NA
Location:  39.0167°N, 96.2886°W
Report Text: KMHK 251952Z 06006KT 10SM CLR 28/18 A3000 RMK AO2 SLP153 T02830183
Loading
Personal Weather Stations






























Interactive Weather Map
Tropical Storm Tracking
New forecast layout! Learn more

10-Day Weather Forecast

Advertisements
Track Severe Weather on mobile